Bezig met laden...

Meteo / TAF / Notam

België
  • EBAW - ANTWERPEN / DEURNE
    EBAW 281250Z 06006KT CAVOK 10/05 Q1019 NOSIG
    TAF EBAW 281120Z 2812/2821 04005KT CAVOK BECMG 2818/2820 4000 BR BKN005
  • EBBE - BEAUVECHAIN
    EBBE 281255Z AUTO 06006KT 9999 NCD 10/07 Q1018 BLU
  • EBBL - KLEINE-BROGEL
    EBBL 281255Z AUTO 06005KT 9999 BKN091/// 08/05 Q1019 BLU
  • EBBR - BRUSSELS / BRUSSELS-NATIONAL
    EBBR 281250Z 05004KT CAVOK 10/06 Q1019 NOSIG
    TAF EBBR 281110Z 2812/2918 04005KT CAVOK BECMG 2818/2820 4000 BR BKN005 PROB30 2901/2908 1400 BKN003 BECMG 2910/2912 6000 NSW
  • EBCI - CHARLEROI / BRUSSELS SOUTH
    EBCI 281250Z 05006KT CAVOK 12/05 Q1018 NOSIG
    TAF EBCI 281110Z 2812/2918 04005KT CAVOK BECMG 2822/2900 4000 BR BKN004 PROB40 2901/2908 0500 FG BKN002 BECMG 2910/2912 6000 NSW
  • EBCV - CHIÈVRES
    EBCV 281255Z AUTO 03006KT //// NCD 11/07 Q1018
    TAF EBCV 280841Z 2810/2819 08005KT 5000 BR FEW030 BECMG 2810/2812 9999 FEW050 BY EBWM
  • EBDT - DIEST / SCHAFFEN
    EBDT 281255Z AUTO 04005KT 9999 FEW090/// 10/06 Q1019 BLU
  • EBFN - KOKSIJDE
    EBFN 281255Z AUTO 07007KT 9999 NCD 10/07 Q1018 BLU
    TAF EBFN 280841Z 2810/2819 08008KT 4000 BR FEW100 TEMPO 2810/2811 VRB03KT 3000 BR FEW002 BECMG 2811/2813 9000 NSW TEMPO 2811/2819 6000 TEMPO 2817/2819 4000 BR
  • EBFS - FLORENNES
    EBFS 281255Z AUTO 08005KT 9999 FEW130/// BKN220/// 12/03 Q1017 BLU
  • EBLB - ELSENBORN
    EBLB 281255Z AUTO 10005KT 9999 NCD 11/04 Q1018 BLU
  • EBLG - LIÈGE / LIÈGE
    EBLG 281250Z 04007KT CAVOK 11/07 Q1018 NOSIG
    TAF EBLG 281110Z 2812/2918 04005KT CAVOK BECMG 2822/2900 4000 BR BKN004 PROB30 2901/2908 0500 FG BKN002 BECMG 2910/2912 6000 NSW
  • EBOS - OOSTENDE-BRUGGE / OOSTENDE
    EBOS 281250Z 07008KT 9000 NSC 10/06 Q1019 NOSIG
    TAF EBOS 281110Z 2812/2918 09006KT 8000 NSC BECMG 2820/2822 3000 BR BKN005 TEMPO 2903/2910 0500 FG BKN002 BECMG 2812/2814 6000 NSW
Nederland
  • EHAK - A12-CPP HELIPAD OIL 2011
    EHAK 281255Z AUTO 14015KT 100V200 9999 BKN041/// 10/06 Q1023
  • EHAM - AMSTERDAM AIRPORT SCHIPHOL
    EHAM 281255Z 09007KT 9999 FEW005 06/04 Q1021 NOSIG
    TAF EHAM 281110Z 2812/2918 08007KT 8000 NSC PROB30 2813/2815 4500 BR BKN005 BECMG 2815/2818 3000 BR BKN004 PROB40 2819/2907 1800 BKN002 BECMG 2907/2910 6000 NSW SCT010 BECMG 2910/2913 CAVOK
  • EHBK - MAASTRICHT AACHEN AIRPORT
    EHBK 281255Z AUTO 06009KT 020V090 9999 NSC 08/04 Q1019 NOSIG
    TAF EHBK 281115Z 2812/2918 06007KT CAVOK PROB40 2818/2902 4000 BR MIFG BECMG 2902/2905 2000 BR MIFG BECMG 2907/2910 CAVOK
  • EHDL - DEELEN AIR BASE
    EHDL 281255Z AUTO 06007KT 010V170 0300 FG VV000 03/03 Q1021 RED
  • EHDV - D15-FA-1 SEA
    EHDV 281255Z AUTO 10013KT 9999 BKN012/// OVC015/// 09/06 Q1022
  • EHEH - EINDHOVEN AIRPORT
    EHEH 281255Z AUTO 06006KT 030V090 9999 OVC090 08/04 Q1020 BLU NOSIG
    TAF EHEH 281122Z 2812/2918 07005KT CAVOK BECMG 2821/2823 3500 BR PROB40 TEMPO 2822/2907 1500 BR MIFG BKN002 BECMG 2907/2909 9999 NSW
  • EHFD - F-3 PLATFORM
    EHFD 281255Z AUTO /////KT 9999 // OVC013/// 09/05 Q1023 RE//
  • EHFS - VLISSINGEN
    EHFS 281255Z AUTO 05009KT 8000 NCD 10/07 Q1019
  • EHGG - GRONINGEN AIRPORT EELDE
    EHGG 281255Z AUTO 08006KT 2800 BR OVC003 05/05 Q1022 NOSIG
    TAF EHGG 281115Z 2812/2918 09008KT 2000 BR OVC004 BECMG 2812/2815 4000 BKN007 PROB40 2818/2904 6000 NSW BKN012 BECMG 2903/2906 SCT014 BECMG 2909/2912 CAVOK
  • EHGR - GILZE-RIJEN AIR BASE
    EHGR 281255Z AUTO 06008KT 010V130 9999 OVC090 08/05 Q1020 BLU
  • EHJA - J6-A SEA, NETHERLANDS
    EHJA 281255Z AUTO 11020KT 9999 BKN007/// OVC008/// 09/07 Q1021
  • EHJR - K13-A PLATFORM
    EHJR 281255Z AUTO 00000KT //// // ///////// 09/07 Q1021 RE// W///H11
  • EHKD - DEN HELDER AIRPORT
    EHKD 281255Z AUTO 10011KT 070V130 3500 BR OVC002 06/05 Q1021 AMB
    TAF COR EHKD 280949Z 2810/2822 10012KT 4000 BR BKN004 PROB30 2810/2812 0500 FG BKN001 OVC002 BECMG 2810/2812 8000 NSW BKN010 TEMPO 2812/2822 4000 BR BKN004
  • EHKV - K14-FA-1C PLATFORM
    EHKV 281255Z AUTO 11017KT 8000 FEW005 09/07 Q1021
  • EHLE - LELYSTAD AIRPORT
    EHLE 281255Z AUTO 08009KT 050V110 0550 R05/0900D FG VV001 03/03 Q1021 TEMPO 2000 BR BKN002
    TAF EHLE 281110Z 2812/2918 08008KT 2000 BR BKN002 PROB40 TEMPO 2812/2907 1200 BKN001 PROB30 2814/2816 5000 FEW005 BECMG 2907/2910 6000 NSW SCT010 BECMG 2910/2913 CAVOK
  • EHLW - LEEUWARDEN AIR BASE
    EHLW 281255Z AUTO 09008KT 030V180 3100 BR OVC003 05/05 Q1022 YLO
    TAF EHLW 280932Z 2810/2822 11009KT 0400 FG BKN001 OVC002 BECMG 2811/2813 5000 NSW BKN008 TEMPO 2812/2820 4500 BR BKN004
  • EHMA - AWG-1 PLATFORM
    EHMA 281255Z AUTO 10013KT 2200 BR OVC001 06/05 Q1023
  • EHMG - L9-FF-1 PLATFORM
    EHMG 281255Z AUTO 10014KT 5000 BR SCT003 BKN004 OVC006 07/05 Q1022
  • EHPG - P11-B SEA, NETHERLANDS
    EHPG 281255Z AUTO 09013KT 8000 FEW006 09/07 Q1020
  • EHQE - HOORN-A SEA, NETHERLANDS
    EHQE 281255Z AUTO 06017KT 7000 FEW004 07/06 Q1021
  • EHRD - ROTTERDAM THE HAGUE AIRPORT
    EHRD 281255Z AUTO 08006KT 040V120 9999 NSC 08/05 Q1020 NOSIG
    TAF EHRD 281111Z 2812/2918 08007KT 9000 NSC BECMG 2816/2819 3000 BR BKN004 PROB30 2819/2907 1800 BKN002 BECMG 2907/2910 6000 NSW SCT010 BECMG 2910/2913 CAVOK
  • EHSA - EURO PLATFORM
    EHSA 281255Z AUTO 09011KT 8000 ///////// 09/07 Q1019 W10/H6
  • EHSC - LICHTEILAND GOEREE
    EHSC 281255Z AUTO 10010KT 7000 ///////// 08/06 Q1019 W11/H5
  • EHVK - VOLKEL AIR BASE
    EHVK 281255Z AUTO 07009KT 8000 BR NCD 05/03 Q1020 BLU
    TAF EHVK 280916Z 2810/2822 08007KT 7000 NSC PROB40 2821/2822 BKN008
  • EHVL - VLIELAND HELIPORT
    EHVL 281255Z AUTO 10013KT 1800 BR OVC001 06/05 Q1022 RED
  • EHWO - WOENSDRECHT AIR BASE
    EHWO 281255Z AUTO 07008KT 030V110 9999 NCD 09/06 Q1019 BLU
Luxemburg
  • ELLX - LUXEMBOURG FINDEL AIRPORT
    ELLX 281250Z 05008KT CAVOK 06/02 Q1018 NOSIG
    TAF ELLX 281100Z 2812/2918 06006KT 1200 BR BKN003 BECMG 2812/2813 9000 NSC BECMG 2816/2818 2000 BR BKN006 TEMPO 2819/2904 0200 FG OVC001 PROB30 TEMPO 2904/2909 FZFG BECMG 2909/2911 9999 NSC

Buienradar



Weerbericht - Voorspelling